createdAt,value
2017-07-08T00:00:55.515Z,1006.05
2017-07-08T00:01:55.496Z,1006.09
2017-07-08T00:02:55.479Z,1006.08
2017-07-08T00:03:55.462Z,1006.06
2017-07-08T00:04:55.444Z,1006.05
2017-07-08T00:05:55.425Z,1006.05
2017-07-08T00:06:55.405Z,1006.08
2017-07-08T00:07:55.390Z,1006.08
2017-07-08T00:08:55.369Z,1006.04
2017-07-08T00:09:55.351Z,1006.05
2017-07-08T00:10:55.333Z,1006.04
2017-07-08T00:11:55.315Z,1006.06
2017-07-08T00:12:55.297Z,1006.07
2017-07-08T00:13:55.278Z,1006.05
2017-07-08T00:14:55.260Z,1006.05
2017-07-08T00:15:55.243Z,1006.06
2017-07-08T00:16:55.225Z,1006.05
2017-07-08T00:17:55.205Z,1006.07
2017-07-08T00:18:55.187Z,1006.07
2017-07-08T00:19:55.168Z,1006.02
2017-07-08T00:20:55.151Z,1006.02
2017-07-08T00:21:55.133Z,1006.01
2017-07-08T00:22:55.114Z,1005.98
2017-07-08T00:23:55.096Z,1005.94
2017-07-08T00:24:55.077Z,1005.95
2017-07-08T00:25:55.061Z,1005.96
2017-07-08T00:26:55.043Z,1006
2017-07-08T00:27:55.023Z,1006.03
2017-07-08T00:28:55.005Z,1006.04
2017-07-08T00:29:54.987Z,1006.07
2017-07-08T00:30:54.968Z,1006.08
2017-07-08T00:31:54.950Z,1006.07
2017-07-08T00:32:54.934Z,1006.09
2017-07-08T00:33:54.914Z,1006.08
2017-07-08T00:34:54.900Z,1006.08
2017-07-08T00:35:54.876Z,1006.07
2017-07-08T00:36:54.862Z,1006.08
2017-07-08T00:37:54.841Z,1006.09
2017-07-08T00:38:54.822Z,1006.05
2017-07-08T00:39:54.804Z,1006.04
2017-07-08T00:40:54.786Z,1006.05
2017-07-08T00:41:54.767Z,1006.05
2017-07-08T00:42:54.749Z,1006.02
2017-07-08T00:43:54.731Z,1006.02
2017-07-08T00:44:54.712Z,1006.04
2017-07-08T00:45:54.693Z,1006.02
2017-07-08T00:46:54.675Z,1006.01
2017-07-08T00:47:54.657Z,1005.98
2017-07-08T00:48:54.639Z,1005.99
2017-07-08T00:49:54.620Z,1005.97
2017-07-08T00:50:54.602Z,1006.01
2017-07-08T00:51:54.584Z,1005.97
2017-07-08T00:52:54.565Z,1005.98
2017-07-08T00:53:54.546Z,1006.01
2017-07-08T00:54:54.528Z,1006.03
2017-07-08T00:55:54.510Z,1006.03
2017-07-08T00:56:54.491Z,1006.02
2017-07-08T00:57:54.473Z,1006
2017-07-08T00:58:54.454Z,1006.06
2017-07-08T00:59:54.435Z,1006.06
2017-07-08T01:00:54.417Z,1006.03
2017-07-08T01:01:54.400Z,1006.11
2017-07-08T01:02:54.381Z,1006.04
2017-07-08T01:03:54.362Z,1006.06
2017-07-08T01:04:54.344Z,1006.02
2017-07-08T01:05:54.326Z,1006.03
2017-07-08T01:06:54.308Z,1006
2017-07-08T01:07:54.290Z,1006.01
2017-07-08T01:08:54.271Z,1005.98
2017-07-08T01:09:54.253Z,1005.98
2017-07-08T01:10:54.234Z,1005.89
2017-07-08T01:11:54.216Z,1005.89
2017-07-08T01:12:54.197Z,1005.91
2017-07-08T01:13:54.180Z,1005.89
2017-07-08T01:14:54.161Z,1005.88
2017-07-08T01:15:54.143Z,1005.86
2017-07-08T01:16:54.124Z,1005.9
2017-07-08T01:17:54.106Z,1005.9
2017-07-08T01:18:54.087Z,1005.93
2017-07-08T01:19:54.070Z,1005.89
2017-07-08T01:20:54.051Z,1005.92
2017-07-08T01:21:54.033Z,1005.9
2017-07-08T01:22:54.014Z,1005.95
2017-07-08T01:23:53.996Z,1005.91
2017-07-08T01:24:53.978Z,1005.91
2017-07-08T01:25:53.959Z,1005.97
2017-07-08T01:26:53.941Z,1005.97
2017-07-08T01:27:53.923Z,1005.96
2017-07-08T01:28:53.905Z,1006
2017-07-08T01:29:53.885Z,1005.98
2017-07-08T01:30:53.867Z,1005.98
2017-07-08T01:31:53.850Z,1005.98
2017-07-08T01:32:53.831Z,1005.96
2017-07-08T01:33:53.813Z,1005.97
2017-07-08T01:34:53.800Z,1006.01
2017-07-08T01:35:53.776Z,1006
2017-07-08T01:36:53.757Z,1006.06
2017-07-08T01:37:53.740Z,1006
2017-07-08T01:38:53.721Z,1006
2017-07-08T01:39:53.704Z,1005.95
2017-07-08T01:40:53.683Z,1005.98
2017-07-08T01:41:53.665Z,1005.98
2017-07-08T01:42:53.647Z,1005.97
2017-07-08T01:43:53.628Z,1005.97
2017-07-08T01:44:53.611Z,1005.99
2017-07-08T01:45:53.593Z,1006
2017-07-08T01:46:53.573Z,1005.96
2017-07-08T01:47:53.555Z,1005.93
2017-07-08T01:48:53.537Z,1005.93
2017-07-08T01:49:53.519Z,1005.89
2017-07-08T01:50:53.501Z,1005.86
2017-07-08T01:51:53.482Z,1005.83
2017-07-08T01:52:53.462Z,1005.86
2017-07-08T01:53:53.444Z,1005.84
2017-07-08T01:54:53.425Z,1005.85
2017-07-08T01:55:53.407Z,1005.83
2017-07-08T01:56:53.389Z,1005.84
2017-07-08T01:57:53.371Z,1005.78
2017-07-08T01:58:53.351Z,1005.75
2017-07-08T01:59:53.333Z,1005.74
2017-07-08T02:00:53.316Z,1005.7
2017-07-08T02:01:53.296Z,1005.69
2017-07-08T02:02:53.277Z,1005.67
2017-07-08T02:03:53.259Z,1005.65
2017-07-08T02:04:53.240Z,1005.62
2017-07-08T02:05:53.220Z,1005.67
2017-07-08T02:06:53.202Z,1005.66
2017-07-08T02:07:53.184Z,1005.68
2017-07-08T02:08:53.165Z,1005.66
2017-07-08T02:09:53.146Z,1005.69
2017-07-08T02:10:53.128Z,1005.69
2017-07-08T02:11:53.109Z,1005.68
2017-07-08T02:12:53.091Z,1005.68
2017-07-08T02:13:53.073Z,1005.73
2017-07-08T02:14:53.054Z,1005.71
2017-07-08T02:15:53.036Z,1005.7
2017-07-08T02:16:53.017Z,1005.71
2017-07-08T02:17:52.998Z,1005.73
2017-07-08T02:18:52.979Z,1005.68
2017-07-08T02:19:52.968Z,1005.69
2017-07-08T02:20:52.942Z,1005.7
2017-07-08T02:21:52.929Z,1005.63
2017-07-08T02:22:52.904Z,1005.67
2017-07-08T02:23:52.935Z,1005.66
2017-07-08T02:24:52.866Z,1005.7
2017-07-08T02:25:52.848Z,1005.69
2017-07-08T02:26:52.829Z,1005.71
2017-07-08T02:27:52.811Z,1005.75
2017-07-08T02:28:52.792Z,1005.71
2017-07-08T02:29:52.773Z,1005.7
2017-07-08T02:30:52.754Z,1005.76
2017-07-08T02:31:52.734Z,1005.73
2017-07-08T02:32:52.716Z,1005.74
2017-07-08T02:33:52.697Z,1005.72
2017-07-08T02:34:52.679Z,1005.72
2017-07-08T02:35:52.660Z,1005.68
2017-07-08T02:36:52.641Z,1005.69
2017-07-08T02:37:52.622Z,1005.69
2017-07-08T02:38:52.653Z,1005.69
2017-07-08T02:39:52.584Z,1005.72
2017-07-08T02:40:52.565Z,1005.66
2017-07-08T02:41:52.547Z,1005.66
2017-07-08T02:42:52.527Z,1005.63
2017-07-08T02:43:52.509Z,1005.64
2017-07-08T02:44:52.489Z,1005.63
2017-07-08T02:45:52.470Z,1005.6
2017-07-08T02:46:52.451Z,1005.59
2017-07-08T02:47:52.434Z,1005.64
2017-07-08T02:48:52.415Z,1005.65
2017-07-08T02:49:52.395Z,1005.64
2017-07-08T02:50:52.377Z,1005.66
2017-07-08T02:51:52.357Z,1005.62
2017-07-08T02:52:52.340Z,1005.67
2017-07-08T02:53:52.319Z,1005.6
2017-07-08T02:54:52.300Z,1005.63
2017-07-08T02:55:52.282Z,1005.63
2017-07-08T02:56:52.262Z,1005.62
2017-07-08T02:57:52.243Z,1005.62
2017-07-08T02:58:52.225Z,1005.64
2017-07-08T02:59:52.206Z,1005.66
2017-07-08T03:00:52.187Z,1005.65
2017-07-08T03:01:52.168Z,1005.66
2017-07-08T03:02:52.149Z,1005.66
2017-07-08T03:03:52.130Z,1005.62
2017-07-08T03:04:52.114Z,1005.62
2017-07-08T03:05:52.092Z,1005.66
2017-07-08T03:06:52.075Z,1005.61
2017-07-08T03:07:52.056Z,1005.65
2017-07-08T03:08:52.036Z,1005.64
2017-07-08T03:09:52.017Z,1005.59
2017-07-08T03:10:51.998Z,1005.59
2017-07-08T03:11:51.979Z,1005.6
2017-07-08T03:12:51.960Z,1005.59
2017-07-08T03:13:51.942Z,1005.62
2017-07-08T03:14:51.923Z,1005.6
2017-07-08T03:15:51.903Z,1005.59
2017-07-08T03:16:51.885Z,1005.58
2017-07-08T03:17:51.868Z,1005.58
2017-07-08T03:18:51.847Z,1005.57
2017-07-08T03:19:51.829Z,1005.61
2017-07-08T03:20:51.810Z,1005.57
2017-07-08T03:21:51.796Z,1005.61
2017-07-08T03:22:51.772Z,1005.62
2017-07-08T03:23:51.753Z,1005.59
2017-07-08T03:24:51.734Z,1005.58
2017-07-08T03:25:51.717Z,1005.61
2017-07-08T03:26:51.697Z,1005.63
2017-07-08T03:27:51.679Z,1005.63
2017-07-08T03:28:51.659Z,1005.65
2017-07-08T03:29:51.640Z,1005.69
2017-07-08T03:30:51.624Z,1005.65
2017-07-08T03:31:51.602Z,1005.65
2017-07-08T03:32:51.585Z,1005.62
2017-07-08T03:33:51.564Z,1005.66
2017-07-08T03:34:51.545Z,1005.63
2017-07-08T03:35:51.528Z,1005.64
2017-07-08T03:36:51.508Z,1005.7
2017-07-08T03:37:51.489Z,1005.66
2017-07-08T03:38:51.471Z,1005.68
2017-07-08T03:39:51.451Z,1005.68
2017-07-08T03:40:51.432Z,1005.67
2017-07-08T03:41:51.414Z,1005.64
2017-07-08T03:42:51.394Z,1005.66
2017-07-08T03:43:51.379Z,1005.63
2017-07-08T03:44:51.356Z,1005.67
2017-07-08T03:45:51.337Z,1005.65
2017-07-08T03:46:51.318Z,1005.69
2017-07-08T03:47:51.302Z,1005.69
2017-07-08T03:48:51.281Z,1005.74
2017-07-08T03:49:51.262Z,1005.76
2017-07-08T03:50:51.244Z,1005.78
2017-07-08T03:51:51.225Z,1005.76
2017-07-08T03:52:51.210Z,1005.82
2017-07-08T03:53:51.189Z,1005.82
2017-07-08T03:54:51.168Z,1005.84
2017-07-08T03:55:51.149Z,1005.84
2017-07-08T03:56:51.130Z,1005.8
2017-07-08T03:57:51.112Z,1005.77
2017-07-08T03:58:51.092Z,1005.79
2017-07-08T03:59:51.074Z,1005.72
2017-07-08T04:00:51.055Z,1005.74
2017-07-08T04:01:51.036Z,1005.72
2017-07-08T04:02:51.016Z,1005.69
2017-07-08T04:03:50.998Z,1005.68
2017-07-08T04:04:50.980Z,1005.68
2017-07-08T04:05:50.961Z,1005.73
2017-07-08T04:06:50.942Z,1005.69
2017-07-08T04:07:50.924Z,1005.69
2017-07-08T04:08:50.906Z,1005.67
2017-07-08T04:09:50.885Z,1005.65
2017-07-08T04:10:50.868Z,1005.7
2017-07-08T04:11:50.849Z,1005.67
2017-07-08T04:12:50.831Z,1005.69
2017-07-08T04:13:50.812Z,1005.7
2017-07-08T04:14:50.793Z,1005.7
2017-07-08T04:15:50.774Z,1005.72
2017-07-08T04:16:50.756Z,1005.69
2017-07-08T04:17:50.738Z,1005.76
2017-07-08T04:18:50.718Z,1005.76
2017-07-08T04:19:50.700Z,1005.74
2017-07-08T04:20:50.682Z,1005.77
2017-07-08T04:21:50.664Z,1005.84
2017-07-08T04:22:50.645Z,1005.83
2017-07-08T04:23:50.627Z,1005.86
2017-07-08T04:24:50.607Z,1005.87
2017-07-08T04:25:50.589Z,1005.88
2017-07-08T04:26:50.571Z,1005.9
2017-07-08T04:27:50.554Z,1005.87
2017-07-08T04:28:50.535Z,1005.9
2017-07-08T04:29:50.516Z,1005.91
2017-07-08T04:30:50.498Z,1005.91
2017-07-08T04:31:50.734Z,1005.98
2017-07-08T04:32:50.461Z,1005.98
2017-07-08T04:33:50.443Z,1005.99
2017-07-08T04:34:50.425Z,1005.97
2017-07-08T04:35:50.406Z,1005.91
2017-07-08T04:36:50.388Z,1005.9
2017-07-08T04:37:50.371Z,1005.88
2017-07-08T04:38:50.353Z,1005.92
2017-07-08T04:39:50.334Z,1005.9
2017-07-08T04:40:50.315Z,1005.94
2017-07-08T04:41:50.298Z,1006
2017-07-08T04:42:50.279Z,1005.98
2017-07-08T04:43:50.261Z,1006.02
2017-07-08T04:44:50.243Z,1006.09
2017-07-08T04:45:50.227Z,1006.1
2017-07-08T04:46:50.207Z,1006.08
2017-07-08T04:47:50.190Z,1006.13
2017-07-08T04:48:50.171Z,1006.1
2017-07-08T04:49:50.154Z,1006.14
2017-07-08T04:50:50.135Z,1006.14
2017-07-08T04:51:50.118Z,1006.13
2017-07-08T04:52:50.101Z,1006.16
2017-07-08T04:53:50.083Z,1006.15
2017-07-08T04:54:50.068Z,1006.16
2017-07-08T04:55:50.049Z,1006.1
2017-07-08T04:56:50.031Z,1006.19
2017-07-08T04:57:50.013Z,1006.11
2017-07-08T04:58:49.996Z,1006.11
2017-07-08T04:59:49.979Z,1006.13
2017-07-08T05:00:49.963Z,1006.09
2017-07-08T05:01:49.945Z,1006.18
2017-07-08T05:02:49.928Z,1006.15
2017-07-08T05:03:49.911Z,1006.16
2017-07-08T05:04:49.893Z,1006.16
2017-07-08T05:05:49.875Z,1006.16
2017-07-08T05:06:49.857Z,1006.13
2017-07-08T05:07:49.840Z,1006.14
2017-07-08T05:08:49.822Z,1006.13
2017-07-08T05:09:49.808Z,1006.13
2017-07-08T05:10:49.788Z,1006.08
2017-07-08T05:11:49.772Z,1006.09
2017-07-08T05:12:49.752Z,1006.11
2017-07-08T05:13:49.736Z,1006.12
2017-07-08T05:14:49.718Z,1006.16
2017-07-08T05:15:49.700Z,1006.13
2017-07-08T05:16:49.681Z,1006.14
2017-07-08T05:17:49.665Z,1006.13
2017-07-08T05:18:49.647Z,1006.1
2017-07-08T05:19:49.629Z,1006.12
2017-07-08T05:20:49.612Z,1006.17
2017-07-08T05:21:49.593Z,1006.19
2017-07-08T05:22:49.576Z,1006.15
2017-07-08T05:23:49.558Z,1006.16
2017-07-08T05:24:49.541Z,1006.18
2017-07-08T05:25:49.524Z,1006.17
2017-07-08T05:26:49.504Z,1006.2
2017-07-08T05:27:49.486Z,1006.2
2017-07-08T05:28:49.469Z,1006.2
2017-07-08T05:29:49.456Z,1006.23
2017-07-08T05:30:49.432Z,1006.17
2017-07-08T05:31:49.415Z,1006.18
2017-07-08T05:32:49.398Z,1006.16
2017-07-08T05:33:49.379Z,1006.16
2017-07-08T05:34:49.363Z,1006.16
2017-07-08T05:35:49.345Z,1006.16
2017-07-08T05:36:49.327Z,1006.15
2017-07-08T05:37:49.309Z,1006.15
2017-07-08T05:38:49.591Z,1006.16
2017-07-08T05:39:49.276Z,1006.15
2017-07-08T05:40:49.257Z,1006.19
2017-07-08T05:41:49.239Z,1006.1
2017-07-08T05:42:49.222Z,1006.08
2017-07-08T05:43:49.205Z,1006.09
2017-07-08T05:44:49.187Z,1006.07
2017-07-08T05:45:49.171Z,1006.06
2017-07-08T05:46:49.153Z,1006.07
2017-07-08T05:47:49.137Z,1006.06
2017-07-08T05:48:49.118Z,1006.03
2017-07-08T05:49:49.101Z,1006.07
2017-07-08T05:50:49.084Z,1006.04
2017-07-08T05:51:49.068Z,1006.01
2017-07-08T05:52:49.050Z,1006.04
2017-07-08T05:53:49.041Z,1006.02
2017-07-08T05:54:49.016Z,1006
2017-07-08T05:55:49.105Z,1006.02
2017-07-08T05:56:48.982Z,1005.98
2017-07-08T05:57:49.266Z,1006.01
2017-07-08T05:58:48.949Z,1006.02
2017-07-08T05:59:48.931Z,1006.05
2017-07-08T06:00:48.915Z,1005.99
2017-07-08T06:01:48.901Z,1006
2017-07-08T06:02:48.882Z,1005.98
2017-07-08T06:03:48.865Z,1005.97
2017-07-08T06:04:48.849Z,1005.97
2017-07-08T06:05:48.833Z,1005.92
2017-07-08T06:06:48.817Z,1005.95
2017-07-08T06:07:48.802Z,1005.87
2017-07-08T06:08:48.785Z,1005.89
2017-07-08T06:09:48.769Z,1005.92
2017-07-08T06:10:48.752Z,1005.91
2017-07-08T06:11:48.737Z,1005.92
2017-07-08T06:12:48.721Z,1005.9
2017-07-08T06:13:48.705Z,1005.94
2017-07-08T06:14:48.689Z,1005.91
2017-07-08T06:15:48.673Z,1005.9
2017-07-08T06:16:48.658Z,1005.88
2017-07-08T06:17:48.643Z,1005.87
2017-07-08T06:18:48.626Z,1005.87
2017-07-08T06:19:48.611Z,1005.88
2017-07-08T06:20:48.596Z,1005.87
2017-07-08T06:21:48.579Z,1005.88
2017-07-08T06:22:48.564Z,1005.89
2017-07-08T06:23:48.549Z,1005.89
2017-07-08T06:24:48.535Z,1005.83
2017-07-08T06:25:48.518Z,1005.87
2017-07-08T06:26:48.505Z,1005.87
2017-07-08T06:27:48.487Z,1005.89
2017-07-08T06:28:48.473Z,1005.9
2017-07-08T06:29:48.456Z,1005.87
2017-07-08T06:30:48.443Z,1005.87
2017-07-08T06:31:48.426Z,1005.9
2017-07-08T06:32:48.410Z,1005.89
2017-07-08T06:33:48.396Z,1005.85
2017-07-08T06:34:48.381Z,1005.88
2017-07-08T06:35:48.365Z,1005.88
2017-07-08T06:36:48.351Z,1005.9
2017-07-08T06:37:48.334Z,1005.89
2017-07-08T06:38:48.320Z,1005.89
2017-07-08T06:39:48.304Z,1005.88
2017-07-08T06:40:48.289Z,1005.88
2017-07-08T06:41:48.274Z,1005.82
2017-07-08T06:42:48.260Z,1005.88
2017-07-08T06:43:48.245Z,1005.87
2017-07-08T06:44:48.230Z,1005.89
2017-07-08T06:45:48.216Z,1005.89
2017-07-08T06:46:48.201Z,1005.88
2017-07-08T06:47:48.187Z,1005.91
2017-07-08T06:48:48.173Z,1005.9
2017-07-08T06:49:48.158Z,1005.93
2017-07-08T06:50:48.143Z,1005.93
2017-07-08T06:51:48.129Z,1005.88
2017-07-08T06:52:48.115Z,1005.92
2017-07-08T06:53:48.102Z,1005.94
2017-07-08T06:54:48.088Z,1005.9
2017-07-08T06:55:48.074Z,1005.9
2017-07-08T06:56:48.061Z,1005.87
2017-07-08T06:57:48.048Z,1005.89
2017-07-08T06:58:48.035Z,1005.88
2017-07-08T06:59:48.022Z,1005.88
2017-07-08T07:00:48.009Z,1005.89
2017-07-08T07:01:47.994Z,1005.95
2017-07-08T07:02:47.985Z,1005.93
2017-07-08T07:03:47.967Z,1005.95
2017-07-08T07:04:47.955Z,1005.94
2017-07-08T07:05:47.941Z,1005.92
2017-07-08T07:06:47.928Z,1005.91
2017-07-08T07:07:47.916Z,1005.87
2017-07-08T07:08:47.901Z,1005.88
2017-07-08T07:09:47.888Z,1005.88
2017-07-08T07:10:47.875Z,1005.88
2017-07-08T07:11:47.862Z,1005.88
2017-07-08T07:12:47.848Z,1005.92
2017-07-08T07:13:47.836Z,1005.93
2017-07-08T07:14:47.822Z,1006.01
2017-07-08T07:15:47.810Z,1005.99
2017-07-08T07:16:47.796Z,1006.03
2017-07-08T07:17:47.783Z,1006.01
2017-07-08T07:18:47.771Z,1005.95
2017-07-08T07:19:47.757Z,1005.92
2017-07-08T07:20:47.745Z,1005.9
2017-07-08T07:21:47.736Z,1005.91
2017-07-08T07:22:47.721Z,1005.93
2017-07-08T07:23:47.755Z,1005.92
2017-07-08T07:24:47.695Z,1005.98
2017-07-08T07:25:47.683Z,1005.97
2017-07-08T07:26:47.669Z,1006
2017-07-08T07:27:47.656Z,1006
2017-07-08T07:28:47.644Z,1006.03
2017-07-08T07:29:47.632Z,1006.01
2017-07-08T07:30:47.619Z,1006.03
2017-07-08T07:31:47.606Z,1006.02
2017-07-08T07:32:47.593Z,1006.09
2017-07-08T07:33:47.582Z,1006.15
2017-07-08T07:34:47.568Z,1006.22
2017-07-08T07:35:47.556Z,1006.23
2017-07-08T07:36:47.544Z,1006.27
2017-07-08T07:37:47.531Z,1006.26
2017-07-08T07:38:47.518Z,1006.33
2017-07-08T07:39:47.507Z,1006.28
2017-07-08T07:40:47.494Z,1006.27
2017-07-08T07:41:47.481Z,1006.33
2017-07-08T07:42:47.468Z,1006.37
2017-07-08T07:43:47.456Z,1006.38
2017-07-08T07:44:47.444Z,1006.39
2017-07-08T07:45:47.430Z,1006.37
2017-07-08T07:46:47.419Z,1006.35
2017-07-08T07:47:47.407Z,1006.32
2017-07-08T07:48:47.395Z,1006.32
2017-07-08T07:49:47.383Z,1006.3
2017-07-08T07:50:47.371Z,1006.31
2017-07-08T07:51:47.367Z,1006.31
2017-07-08T07:52:47.349Z,1006.33
2017-07-08T07:53:47.338Z,1006.31
2017-07-08T07:54:47.328Z,1006.33
2017-07-08T07:55:47.567Z,1006.31
2017-07-08T07:56:47.306Z,1006.3
2017-07-08T07:57:47.297Z,1006.29
2017-07-08T07:58:47.285Z,1006.28
2017-07-08T07:59:47.275Z,1006.28
2017-07-08T08:00:47.265Z,1006.3
2017-07-08T08:01:47.254Z,1006.25
2017-07-08T08:02:47.244Z,1006.25
2017-07-08T08:03:47.232Z,1006.29
2017-07-08T08:04:47.222Z,1006.25
2017-07-08T08:05:47.211Z,1006.29
2017-07-08T08:06:47.201Z,1006.3
2017-07-08T08:07:47.189Z,1006.26
2017-07-08T08:08:47.179Z,1006.28
2017-07-08T08:09:47.169Z,1006.25
2017-07-08T08:10:47.158Z,1006.25
2017-07-08T08:11:47.147Z,1006.28
2017-07-08T08:12:47.136Z,1006.28
2017-07-08T08:13:47.126Z,1006.32
2017-07-08T08:14:47.115Z,1006.32
2017-07-08T08:15:47.103Z,1006.36
2017-07-08T08:16:47.093Z,1006.37
2017-07-08T08:17:47.082Z,1006.39
2017-07-08T08:18:47.072Z,1006.44
2017-07-08T08:19:47.062Z,1006.44
2017-07-08T08:20:47.052Z,1006.42
2017-07-08T08:21:47.040Z,1006.42
2017-07-08T08:22:47.029Z,1006.45
2017-07-08T08:23:47.019Z,1006.47
2017-07-08T08:24:47.018Z,1006.43
2017-07-08T08:25:46.998Z,1006.48
2017-07-08T08:26:46.990Z,1006.51
2017-07-08T08:27:46.978Z,1006.49
2017-07-08T08:28:46.969Z,1006.54
2017-07-08T08:29:46.957Z,1006.57
2017-07-08T08:30:46.947Z,1006.56
2017-07-08T08:31:46.938Z,1006.54
2017-07-08T08:32:46.927Z,1006.49
2017-07-08T08:33:46.917Z,1006.47
2017-07-08T08:34:46.907Z,1006.49
2017-07-08T08:35:46.896Z,1006.52
2017-07-08T08:36:46.885Z,1006.5
2017-07-08T08:37:46.875Z,1006.5
2017-07-08T08:38:46.864Z,1006.51
2017-07-08T08:39:46.855Z,1006.49
2017-07-08T08:40:46.842Z,1006.48
2017-07-08T08:41:46.831Z,1006.44
2017-07-08T08:42:46.824Z,1006.41
2017-07-08T08:43:46.809Z,1006.45
2017-07-08T08:44:46.800Z,1006.49
2017-07-08T08:45:46.788Z,1006.45
2017-07-08T08:46:46.778Z,1006.44
2017-07-08T08:47:46.770Z,1006.4
2017-07-08T08:48:46.757Z,1006.43
2017-07-08T08:49:46.747Z,1006.36
2017-07-08T08:50:46.737Z,1006.36
2017-07-08T08:51:46.726Z,1006.37
2017-07-08T08:52:46.716Z,1006.36
2017-07-08T08:53:46.706Z,1006.36
2017-07-08T08:54:46.695Z,1006.36
2017-07-08T08:55:46.686Z,1006.38
2017-07-08T08:56:46.675Z,1006.34
2017-07-08T08:57:46.665Z,1006.39
2017-07-08T08:58:46.654Z,1006.41
2017-07-08T08:59:46.644Z,1006.42
2017-07-08T09:00:46.634Z,1006.38
2017-07-08T09:01:46.624Z,1006.41
2017-07-08T09:02:46.612Z,1006.42
2017-07-08T09:03:46.603Z,1006.45
2017-07-08T09:04:46.594Z,1006.44
2017-07-08T09:05:46.583Z,1006.41
2017-07-08T09:06:46.577Z,1006.41
2017-07-08T09:07:46.562Z,1006.38
2017-07-08T09:08:46.553Z,1006.38
2017-07-08T09:09:46.542Z,1006.38
2017-07-08T09:10:46.533Z,1006.36
2017-07-08T09:11:46.523Z,1006.38
2017-07-08T09:12:46.518Z,1006.38
2017-07-08T09:13:46.503Z,1006.37
2017-07-08T09:14:46.494Z,1006.37
2017-07-08T09:15:46.484Z,1006.36
2017-07-08T09:16:46.475Z,1006.39
2017-07-08T09:17:46.468Z,1006.38
2017-07-08T09:18:46.460Z,1006.42
2017-07-08T09:19:46.452Z,1006.4
2017-07-08T09:20:46.444Z,1006.38
2017-07-08T09:21:46.436Z,1006.43
2017-07-08T09:22:46.429Z,1006.44
2017-07-08T09:23:46.423Z,1006.43
2017-07-08T09:24:46.414Z,1006.43
2017-07-08T09:25:46.407Z,1006.43
2017-07-08T09:26:46.458Z,1006.39
2017-07-08T09:27:46.398Z,1006.48
2017-07-08T09:28:46.385Z,1006.41
2017-07-08T09:29:46.378Z,1006.42
2017-07-08T09:30:46.371Z,1006.38
2017-07-08T09:31:46.364Z,1006.39
2017-07-08T09:32:46.358Z,1006.41
2017-07-08T09:33:46.351Z,1006.43
2017-07-08T09:34:46.350Z,1006.43
2017-07-08T09:35:46.337Z,1006.44
2017-07-08T09:36:46.332Z,1006.44
2017-07-08T09:37:46.335Z,1006.39
2017-07-08T09:38:46.318Z,1006.39
2017-07-08T09:39:46.312Z,1006.38
2017-07-08T09:40:46.306Z,1006.42
2017-07-08T09:41:46.300Z,1006.41
2017-07-08T09:42:46.295Z,1006.44
2017-07-08T09:43:46.289Z,1006.46
2017-07-08T09:44:46.281Z,1006.42
2017-07-08T09:45:46.276Z,1006.44
2017-07-08T09:46:46.271Z,1006.38
2017-07-08T09:47:46.261Z,1006.41
2017-07-08T09:48:46.255Z,1006.37
2017-07-08T09:49:46.247Z,1006.36
2017-07-08T09:50:46.241Z,1006.39
2017-07-08T09:51:46.234Z,1006.36
2017-07-08T09:52:46.228Z,1006.42
2017-07-08T09:53:46.221Z,1006.42
2017-07-08T09:54:46.216Z,1006.42
2017-07-08T09:55:46.209Z,1006.43
2017-07-08T09:56:46.203Z,1006.43
2017-07-08T09:57:46.196Z,1006.42
2017-07-08T09:58:46.190Z,1006.4
2017-07-08T09:59:46.185Z,1006.38
2017-07-08T10:00:46.178Z,1006.38
2017-07-08T10:01:46.173Z,1006.38
2017-07-08T10:02:46.168Z,1006.38
2017-07-08T10:03:46.163Z,1006.37
2017-07-08T10:04:46.158Z,1006.31
2017-07-08T10:05:46.153Z,1006.39
2017-07-08T10:06:46.149Z,1006.38
2017-07-08T10:07:46.145Z,1006.39
2017-07-08T10:08:46.141Z,1006.42
2017-07-08T10:09:46.136Z,1006.43
2017-07-08T10:10:46.132Z,1006.4
2017-07-08T10:11:46.126Z,1006.39
2017-07-08T10:12:46.324Z,1006.4
2017-07-08T10:13:46.117Z,1006.36
2017-07-08T10:14:46.172Z,1006.36
2017-07-08T10:15:46.107Z,1006.39
2017-07-08T10:16:46.103Z,1006.42
2017-07-08T10:17:46.099Z,1006.42
2017-07-08T10:18:46.094Z,1006.36
2017-07-08T10:19:46.090Z,1006.36
2017-07-08T10:20:46.086Z,1006.32
2017-07-08T10:21:46.082Z,1006.33
2017-07-08T10:22:46.077Z,1006.29
2017-07-08T10:23:46.074Z,1006.34
2017-07-08T10:24:46.070Z,1006.39
2017-07-08T10:25:46.066Z,1006.38
2017-07-08T10:26:46.061Z,1006.32
2017-07-08T10:27:46.057Z,1006.36
2017-07-08T10:28:46.052Z,1006.4
2017-07-08T10:29:46.047Z,1006.38
2017-07-08T10:30:46.042Z,1006.38
2017-07-08T10:31:46.037Z,1006.38
2017-07-08T10:32:46.032Z,1006.4
2017-07-08T10:33:46.026Z,1006.33
2017-07-08T10:34:46.021Z,1006.37
2017-07-08T10:35:46.016Z,1006.36
2017-07-08T10:36:46.009Z,1006.34
2017-07-08T10:37:46.003Z,1006.42
2017-07-08T10:38:45.998Z,1006.43
2017-07-08T10:39:45.991Z,1006.4
2017-07-08T10:40:45.984Z,1006.38
2017-07-08T10:41:45.978Z,1006.35
2017-07-08T10:42:45.972Z,1006.32
2017-07-08T10:43:45.965Z,1006.31
2017-07-08T10:44:45.959Z,1006.31
2017-07-08T10:45:45.952Z,1006.34
2017-07-08T10:46:45.945Z,1006.33
2017-07-08T10:47:45.937Z,1006.28
2017-07-08T10:48:45.931Z,1006.26
2017-07-08T10:49:45.923Z,1006.24
2017-07-08T10:50:45.916Z,1006.19
2017-07-08T10:51:45.909Z,1006.18
2017-07-08T10:52:45.902Z,1006.2
2017-07-08T10:53:45.896Z,1006.16
2017-07-08T10:54:45.891Z,1006.21
2017-07-08T10:55:45.883Z,1006.19
2017-07-08T10:56:45.877Z,1006.21
2017-07-08T10:57:45.871Z,1006.2
2017-07-08T10:58:45.866Z,1006.2
2017-07-08T10:59:45.917Z,1006.17
2017-07-08T11:00:45.852Z,1006.21
2017-07-08T11:01:45.846Z,1006.22
2017-07-08T11:02:45.839Z,1006.16
2017-07-08T11:03:45.833Z,1006.14
2017-07-08T11:04:45.827Z,1006.16
2017-07-08T11:05:45.821Z,1006.18
2017-07-08T11:06:45.836Z,1006.15
2017-07-08T11:07:45.808Z,1006.18
2017-07-08T11:08:45.801Z,1006.22
2017-07-08T11:09:45.811Z,1006.18
2017-07-08T11:10:45.787Z,1006.22
2017-07-08T11:11:45.781Z,1006.23
2017-07-08T11:12:45.774Z,1006.22
2017-07-08T11:13:45.769Z,1006.14
2017-07-08T11:14:45.760Z,1006.18
2017-07-08T11:15:45.763Z,1006.2
2017-07-08T11:16:45.818Z,1006.14
2017-07-08T11:17:45.759Z,1006.15
2017-07-08T11:18:45.734Z,1006.14
2017-07-08T11:19:45.729Z,1006.16
2017-07-08T11:20:45.724Z,1006.18
2017-07-08T11:21:45.717Z,1006.18
2017-07-08T11:22:45.711Z,1006.13
2017-07-08T11:23:45.707Z,1006.14
2017-07-08T11:24:45.700Z,1006.13
2017-07-08T11:25:45.695Z,1006.08
2017-07-08T11:26:45.690Z,1006.06
2017-07-08T11:27:45.685Z,1006.02
2017-07-08T11:28:45.679Z,1005.98
2017-07-08T11:29:45.729Z,1005.94
2017-07-08T11:30:45.673Z,1005.97
2017-07-08T11:31:45.669Z,1006.01
2017-07-08T11:32:45.663Z,1006
2017-07-08T11:33:45.663Z,1005.99
2017-07-08T11:34:45.656Z,1005.95
2017-07-08T11:35:45.653Z,1005.98
2017-07-08T11:36:45.648Z,1006.04
2017-07-08T11:37:45.644Z,1006.02
2017-07-08T11:38:45.640Z,1005.96
2017-07-08T11:39:45.636Z,1006.04
2017-07-08T11:40:45.632Z,1005.96
2017-07-08T11:41:45.628Z,1005.96
2017-07-08T11:42:45.624Z,1006.06
2017-07-08T11:43:45.620Z,1005.93
2017-07-08T11:44:45.615Z,1005.99
2017-07-08T11:45:45.611Z,1005.91
2017-07-08T11:46:45.607Z,1005.94
2017-07-08T11:47:45.603Z,1005.96
2017-07-08T11:48:45.599Z,1005.98
2017-07-08T11:49:45.596Z,1005.94
2017-07-08T11:50:45.593Z,1005.88
2017-07-08T11:51:45.589Z,1005.9
2017-07-08T11:52:45.586Z,1005.88
2017-07-08T11:53:45.583Z,1005.89
2017-07-08T11:54:45.581Z,1005.89
2017-07-08T11:55:45.580Z,1005.93
2017-07-08T11:56:45.578Z,1005.91
2017-07-08T11:57:45.574Z,1005.94
2017-07-08T11:58:45.573Z,1005.99
2017-07-08T11:59:45.575Z,1005.95
2017-07-08T12:00:45.569Z,1005.93
2017-07-08T12:01:45.565Z,1005.89
2017-07-08T12:02:45.563Z,1005.94
2017-07-08T12:03:45.562Z,1005.95
2017-07-08T12:04:45.554Z,1005.93
2017-07-08T12:05:45.550Z,1005.91
2017-07-08T12:06:45.546Z,1005.95
2017-07-08T12:07:45.541Z,1005.9
2017-07-08T12:08:45.535Z,1005.99